sensor_id;sensor_type;location;lat;lon;timestamp;temperature;humidity
32698;DHT22;19087;51.062;3.754;2022-07-29T00:01:23;19.90;88.10
32698;DHT22;19087;51.062;3.754;2022-07-29T00:03:49;19.80;88.20
32698;DHT22;19087;51.062;3.754;2022-07-29T00:06:15;19.80;88.10
32698;DHT22;19087;51.062;3.754;2022-07-29T00:08:46;19.80;88.30
32698;DHT22;19087;51.062;3.754;2022-07-29T00:11:12;19.70;88.40
32698;DHT22;19087;51.062;3.754;2022-07-29T00:13:38;19.70;88.40
32698;DHT22;19087;51.062;3.754;2022-07-29T00:16:04;19.70;88.50
32698;DHT22;19087;51.062;3.754;2022-07-29T00:18:29;19.70;88.50
32698;DHT22;19087;51.062;3.754;2022-07-29T00:20:55;19.80;88.30
32698;DHT22;19087;51.062;3.754;2022-07-29T00:23:21;19.70;88.50
32698;DHT22;19087;51.062;3.754;2022-07-29T00:25:46;19.60;88.80
32698;DHT22;19087;51.062;3.754;2022-07-29T00:28:12;19.60;88.80
32698;DHT22;19087;51.062;3.754;2022-07-29T00:30:40;19.60;89.00
32698;DHT22;19087;51.062;3.754;2022-07-29T00:33:11;19.60;89.00
32698;DHT22;19087;51.062;3.754;2022-07-29T00:35:37;19.50;89.10
32698;DHT22;19087;51.062;3.754;2022-07-29T00:38:16;19.60;88.70
32698;DHT22;19087;51.062;3.754;2022-07-29T00:40:42;19.60;88.70
32698;DHT22;19087;51.062;3.754;2022-07-29T00:43:14;19.50;89.00
32698;DHT22;19087;51.062;3.754;2022-07-29T00:45:44;19.40;89.30
32698;DHT22;19087;51.062;3.754;2022-07-29T00:48:09;19.30;89.50
32698;DHT22;19087;51.062;3.754;2022-07-29T00:50:36;19.30;89.70
32698;DHT22;19087;51.062;3.754;2022-07-29T00:53:04;19.30;90.00
32698;DHT22;19087;51.062;3.754;2022-07-29T00:55:32;19.40;89.90
32698;DHT22;19087;51.062;3.754;2022-07-29T00:58:06;19.50;89.70
32698;DHT22;19087;51.062;3.754;2022-07-29T01:00:33;19.50;89.60
32698;DHT22;19087;51.062;3.754;2022-07-29T01:02:58;19.40;89.90
32698;DHT22;19087;51.062;3.754;2022-07-29T01:05:27;19.40;89.90
32698;DHT22;19087;51.062;3.754;2022-07-29T01:07:54;19.40;90.00
32698;DHT22;19087;51.062;3.754;2022-07-29T01:10:21;19.30;90.00
32698;DHT22;19087;51.062;3.754;2022-07-29T01:12:54;19.30;90.20
32698;DHT22;19087;51.062;3.754;2022-07-29T01:15:20;19.20;90.30
32698;DHT22;19087;51.062;3.754;2022-07-29T01:18:01;19.20;90.40
32698;DHT22;19087;51.062;3.754;2022-07-29T01:23:26;19.20;90.40
32698;DHT22;19087;51.062;3.754;2022-07-29T01:26:31;19.20;90.40
32698;DHT22;19087;51.062;3.754;2022-07-29T01:29:05;19.10;90.50
32698;DHT22;19087;51.062;3.754;2022-07-29T01:31:38;18.90;90.70
32698;DHT22;19087;51.062;3.754;2022-07-29T01:34:07;18.90;90.90
32698;DHT22;19087;51.062;3.754;2022-07-29T01:36:55;18.90;90.90
32698;DHT22;19087;51.062;3.754;2022-07-29T01:39:32;18.70;90.90
32698;DHT22;19087;51.062;3.754;2022-07-29T01:42:01;18.80;91.00
32698;DHT22;19087;51.062;3.754;2022-07-29T01:50:34;18.60;91.30
32698;DHT22;19087;51.062;3.754;2022-07-29T01:53:04;18.40;91.30
32698;DHT22;19087;51.062;3.754;2022-07-29T01:55:40;18.40;91.60
32698;DHT22;19087;51.062;3.754;2022-07-29T01:58:08;18.40;91.70
32698;DHT22;19087;51.062;3.754;2022-07-29T02:00:36;18.30;91.70
32698;DHT22;19087;51.062;3.754;2022-07-29T02:03:09;18.20;91.90
32698;DHT22;19087;51.062;3.754;2022-07-29T02:05:35;18.20;92.00
32698;DHT22;19087;51.062;3.754;2022-07-29T02:08:06;18.10;92.10
32698;DHT22;19087;51.062;3.754;2022-07-29T02:10:33;18.20;92.20
32698;DHT22;19087;51.062;3.754;2022-07-29T02:13:01;18.20;92.20
32698;DHT22;19087;51.062;3.754;2022-07-29T02:15:29;18.20;92.10
32698;DHT22;19087;51.062;3.754;2022-07-29T02:18:04;18.10;92.20
32698;DHT22;19087;51.062;3.754;2022-07-29T02:20:31;18.20;92.10
32698;DHT22;19087;51.062;3.754;2022-07-29T02:22:58;18.20;92.20
32698;DHT22;19087;51.062;3.754;2022-07-29T02:25:26;18.10;92.20
32698;DHT22;19087;51.062;3.754;2022-07-29T02:27:55;18.00;92.40
32698;DHT22;19087;51.062;3.754;2022-07-29T02:30:22;17.90;92.40
32698;DHT22;19087;51.062;3.754;2022-07-29T02:32:50;17.90;92.60
32698;DHT22;19087;51.062;3.754;2022-07-29T02:35:18;17.80;92.60
32698;DHT22;19087;51.062;3.754;2022-07-29T02:37:45;17.90;92.50
32698;DHT22;19087;51.062;3.754;2022-07-29T02:40:34;17.90;92.50
32698;DHT22;19087;51.062;3.754;2022-07-29T02:43:02;17.80;92.70
32698;DHT22;19087;51.062;3.754;2022-07-29T02:45:32;17.70;92.70
32698;DHT22;19087;51.062;3.754;2022-07-29T02:48:00;17.60;92.90
32698;DHT22;19087;51.062;3.754;2022-07-29T02:50:37;17.50;93.20
32698;DHT22;19087;51.062;3.754;2022-07-29T02:53:15;17.50;93.20
32698;DHT22;19087;51.062;3.754;2022-07-29T02:56:04;17.60;93.10
32698;DHT22;19087;51.062;3.754;2022-07-29T02:58:38;17.60;93.10
32698;DHT22;19087;51.062;3.754;2022-07-29T03:01:15;17.60;93.00
32698;DHT22;19087;51.062;3.754;2022-07-29T03:03:44;17.60;93.40
32698;DHT22;19087;51.062;3.754;2022-07-29T03:06:13;17.60;93.00
32698;DHT22;19087;51.062;3.754;2022-07-29T03:08:40;17.60;93.10
32698;DHT22;19087;51.062;3.754;2022-07-29T03:11:08;17.50;93.20
32698;DHT22;19087;51.062;3.754;2022-07-29T03:13:35;17.60;93.20
32698;DHT22;19087;51.062;3.754;2022-07-29T03:16:01;17.60;93.20
32698;DHT22;19087;51.062;3.754;2022-07-29T03:18:28;17.50;93.40
32698;DHT22;19087;51.062;3.754;2022-07-29T03:20:54;17.40;93.50
32698;DHT22;19087;51.062;3.754;2022-07-29T03:23:21;17.50;93.50
32698;DHT22;19087;51.062;3.754;2022-07-29T03:25:50;17.40;93.60
32698;DHT22;19087;51.062;3.754;2022-07-29T03:28:16;17.40;93.80
32698;DHT22;19087;51.062;3.754;2022-07-29T03:30:42;17.30;94.00
32698;DHT22;19087;51.062;3.754;2022-07-29T03:33:07;17.30;94.00
32698;DHT22;19087;51.062;3.754;2022-07-29T03:35:33;17.30;94.00
32698;DHT22;19087;51.062;3.754;2022-07-29T03:37:59;17.30;94.10
32698;DHT22;19087;51.062;3.754;2022-07-29T03:40:31;17.20;94.20
32698;DHT22;19087;51.062;3.754;2022-07-29T03:42:59;17.20;94.50
32698;DHT22;19087;51.062;3.754;2022-07-29T03:45:26;17.00;94.70
32698;DHT22;19087;51.062;3.754;2022-07-29T03:47:58;17.00;94.90
32698;DHT22;19087;51.062;3.754;2022-07-29T03:50:25;16.90;95.20
32698;DHT22;19087;51.062;3.754;2022-07-29T03:52:51;16.90;95.40
32698;DHT22;19087;51.062;3.754;2022-07-29T03:55:16;17.00;95.30
32698;DHT22;19087;51.062;3.754;2022-07-29T03:57:44;17.10;95.20
32698;DHT22;19087;51.062;3.754;2022-07-29T04:00:11;17.10;95.20
32698;DHT22;19087;51.062;3.754;2022-07-29T04:02:38;17.10;95.20
32698;DHT22;19087;51.062;3.754;2022-07-29T04:05:12;17.10;95.20
32698;DHT22;19087;51.062;3.754;2022-07-29T04:07:39;17.20;95.20
32698;DHT22;19087;51.062;3.754;2022-07-29T04:10:05;17.10;95.30
32698;DHT22;19087;51.062;3.754;2022-07-29T04:12:34;17.00;95.50
32698;DHT22;19087;51.062;3.754;2022-07-29T04:15:03;16.90;95.70
32698;DHT22;19087;51.062;3.754;2022-07-29T04:17:29;16.90;95.80
32698;DHT22;19087;51.062;3.754;2022-07-29T04:19:55;17.00;96.10
32698;DHT22;19087;51.062;3.754;2022-07-29T04:22:20;17.00;95.90
32698;DHT22;19087;51.062;3.754;2022-07-29T04:24:46;17.00;95.90
32698;DHT22;19087;51.062;3.754;2022-07-29T04:27:14;17.10;96.00
32698;DHT22;19087;51.062;3.754;2022-07-29T04:29:39;17.20;95.90
32698;DHT22;19087;51.062;3.754;2022-07-29T04:32:05;17.20;95.90
32698;DHT22;19087;51.062;3.754;2022-07-29T04:34:33;17.20;95.90
32698;DHT22;19087;51.062;3.754;2022-07-29T04:37:00;17.20;95.90
32698;DHT22;19087;51.062;3.754;2022-07-29T04:39:25;17.30;95.90
32698;DHT22;19087;51.062;3.754;2022-07-29T04:41:51;17.30;95.90
32698;DHT22;19087;51.062;3.754;2022-07-29T04:44:19;17.30;95.90
32698;DHT22;19087;51.062;3.754;2022-07-29T04:46:45;17.30;96.00
32698;DHT22;19087;51.062;3.754;2022-07-29T04:49:11;17.30;96.10
32698;DHT22;19087;51.062;3.754;2022-07-29T04:51:36;17.30;96.10
32698;DHT22;19087;51.062;3.754;2022-07-29T04:54:04;17.30;96.10
32698;DHT22;19087;51.062;3.754;2022-07-29T04:56:30;17.40;96.10
32698;DHT22;19087;51.062;3.754;2022-07-29T04:58:56;17.40;95.90
32698;DHT22;19087;51.062;3.754;2022-07-29T05:01:21;17.40;96.00
32698;DHT22;19087;51.062;3.754;2022-07-29T05:03:47;17.40;96.00
32698;DHT22;19087;51.062;3.754;2022-07-29T05:06:13;17.50;96.00
32698;DHT22;19087;51.062;3.754;2022-07-29T05:08:39;17.50;96.20
32698;DHT22;19087;51.062;3.754;2022-07-29T05:11:04;17.50;96.00
32698;DHT22;19087;51.062;3.754;2022-07-29T05:13:30;17.50;96.30
32698;DHT22;19087;51.062;3.754;2022-07-29T05:15:56;17.60;95.90
32698;DHT22;19087;51.062;3.754;2022-07-29T05:18:24;17.60;95.90
32698;DHT22;19087;51.062;3.754;2022-07-29T05:20:50;17.80;95.80
32698;DHT22;19087;51.062;3.754;2022-07-29T05:23:16;17.90;95.60
32698;DHT22;19087;51.062;3.754;2022-07-29T05:25:41;17.90;95.70
32698;DHT22;19087;51.062;3.754;2022-07-29T05:28:07;17.90;95.60
32698;DHT22;19087;51.062;3.754;2022-07-29T05:30:33;17.90;95.50
32698;DHT22;19087;51.062;3.754;2022-07-29T05:32:59;18.10;95.40
32698;DHT22;19087;51.062;3.754;2022-07-29T05:35:24;18.10;95.30
32698;DHT22;19087;51.062;3.754;2022-07-29T05:37:50;18.30;95.30
32698;DHT22;19087;51.062;3.754;2022-07-29T05:40:16;18.30;95.10
32698;DHT22;19087;51.062;3.754;2022-07-29T05:42:42;18.30;94.90
32698;DHT22;19087;51.062;3.754;2022-07-29T05:45:08;18.40;94.60
32698;DHT22;19087;51.062;3.754;2022-07-29T05:47:34;18.40;94.60
32698;DHT22;19087;51.062;3.754;2022-07-29T05:50:00;18.50;94.70
32698;DHT22;19087;51.062;3.754;2022-07-29T05:52:25;18.60;94.60
32698;DHT22;19087;51.062;3.754;2022-07-29T05:54:51;18.70;94.50
32698;DHT22;19087;51.062;3.754;2022-07-29T05:57:22;18.70;94.30
32698;DHT22;19087;51.062;3.754;2022-07-29T05:59:49;18.80;94.40
32698;DHT22;19087;51.062;3.754;2022-07-29T06:02:15;18.90;94.30
32698;DHT22;19087;51.062;3.754;2022-07-29T06:04:43;19.00;94.00
32698;DHT22;19087;51.062;3.754;2022-07-29T06:07:09;19.10;93.80
32698;DHT22;19087;51.062;3.754;2022-07-29T06:09:34;19.20;93.70
32698;DHT22;19087;51.062;3.754;2022-07-29T06:12:01;19.40;93.40
32698;DHT22;19087;51.062;3.754;2022-07-29T06:14:27;19.60;93.20
32698;DHT22;19087;51.062;3.754;2022-07-29T06:16:54;19.70;93.00
32698;DHT22;19087;51.062;3.754;2022-07-29T06:19:20;19.80;92.80
32698;DHT22;19087;51.062;3.754;2022-07-29T06:21:46;20.30;92.90
32698;DHT22;19087;51.062;3.754;2022-07-29T06:24:13;21.70;91.40
32698;DHT22;19087;51.062;3.754;2022-07-29T06:26:42;23.40;88.00
32698;DHT22;19087;51.062;3.754;2022-07-29T06:29:08;24.90;82.80
32698;DHT22;19087;51.062;3.754;2022-07-29T06:31:36;26.50;78.60
32698;DHT22;19087;51.062;3.754;2022-07-29T06:34:02;27.70;74.80
32698;DHT22;19087;51.062;3.754;2022-07-29T06:36:28;28.80;71.40
32698;DHT22;19087;51.062;3.754;2022-07-29T06:38:54;29.50;68.60
32698;DHT22;19087;51.062;3.754;2022-07-29T06:41:20;30.00;67.10
32698;DHT22;19087;51.062;3.754;2022-07-29T06:43:46;30.70;65.20
32698;DHT22;19087;51.062;3.754;2022-07-29T06:46:16;31.20;63.30
32698;DHT22;19087;51.062;3.754;2022-07-29T06:48:45;31.30;62.80
32698;DHT22;19087;51.062;3.754;2022-07-29T06:51:11;32.00;61.50
32698;DHT22;19087;51.062;3.754;2022-07-29T06:53:37;32.20;60.70
32698;DHT22;19087;51.062;3.754;2022-07-29T06:56:06;32.70;59.40
32698;DHT22;19087;51.062;3.754;2022-07-29T06:58:35;32.90;58.80
32698;DHT22;19087;51.062;3.754;2022-07-29T07:01:03;33.20;59.20
32698;DHT22;19087;51.062;3.754;2022-07-29T07:03:30;33.90;58.40
32698;DHT22;19087;51.062;3.754;2022-07-29T07:05:56;33.80;57.50
32698;DHT22;19087;51.062;3.754;2022-07-29T07:08:22;34.00;57.00
32698;DHT22;19087;51.062;3.754;2022-07-29T07:10:52;34.10;56.60
32698;DHT22;19087;51.062;3.754;2022-07-29T07:13:18;34.60;56.10
32698;DHT22;19087;51.062;3.754;2022-07-29T07:15:45;34.40;55.80
32698;DHT22;19087;51.062;3.754;2022-07-29T07:18:14;35.10;55.60
32698;DHT22;19087;51.062;3.754;2022-07-29T07:20:41;35.60;54.50
32698;DHT22;19087;51.062;3.754;2022-07-29T07:23:06;35.30;55.30
32698;DHT22;19087;51.062;3.754;2022-07-29T07:25:32;35.30;55.20
32698;DHT22;19087;51.062;3.754;2022-07-29T07:27:59;35.30;55.00
32698;DHT22;19087;51.062;3.754;2022-07-29T07:30:26;35.70;54.40
32698;DHT22;19087;51.062;3.754;2022-07-29T07:32:52;36.00;53.80
32698;DHT22;19087;51.062;3.754;2022-07-29T07:35:18;36.40;53.20
32698;DHT22;19087;51.062;3.754;2022-07-29T07:37:45;36.50;52.80
32698;DHT22;19087;51.062;3.754;2022-07-29T07:40:11;36.70;52.70
32698;DHT22;19087;51.062;3.754;2022-07-29T07:42:40;36.30;52.40
32698;DHT22;19087;51.062;3.754;2022-07-29T07:45:07;35.80;53.40
32698;DHT22;19087;51.062;3.754;2022-07-29T07:47:37;36.40;53.20
32698;DHT22;19087;51.062;3.754;2022-07-29T07:50:05;36.50;52.70
32698;DHT22;19087;51.062;3.754;2022-07-29T07:52:31;36.30;52.80
32698;DHT22;19087;51.062;3.754;2022-07-29T07:54:57;35.80;53.90
32698;DHT22;19087;51.062;3.754;2022-07-29T07:57:29;36.00;53.80
32698;DHT22;19087;51.062;3.754;2022-07-29T07:59:55;36.90;53.10
32698;DHT22;19087;51.062;3.754;2022-07-29T08:02:21;37.40;52.10
32698;DHT22;19087;51.062;3.754;2022-07-29T08:04:47;37.40;51.60
32698;DHT22;19087;51.062;3.754;2022-07-29T08:07:13;37.20;52.00
32698;DHT22;19087;51.062;3.754;2022-07-29T08:09:40;37.60;52.00
32698;DHT22;19087;51.062;3.754;2022-07-29T08:12:06;37.80;51.30
32698;DHT22;19087;51.062;3.754;2022-07-29T08:14:32;37.90;51.00
32698;DHT22;19087;51.062;3.754;2022-07-29T08:16:59;38.50;50.60
32698;DHT22;19087;51.062;3.754;2022-07-29T08:19:24;38.20;50.80
32698;DHT22;19087;51.062;3.754;2022-07-29T08:21:51;37.90;50.90
32698;DHT22;19087;51.062;3.754;2022-07-29T08:24:19;38.30;50.40
32698;DHT22;19087;51.062;3.754;2022-07-29T08:27:04;38.50;50.10
32698;DHT22;19087;51.062;3.754;2022-07-29T08:29:30;38.40;50.20
32698;DHT22;19087;51.062;3.754;2022-07-29T08:31:56;38.50;49.70
32698;DHT22;19087;51.062;3.754;2022-07-29T08:34:35;39.20;48.90
32698;DHT22;19087;51.062;3.754;2022-07-29T08:37:04;38.70;48.90
32698;DHT22;19087;51.062;3.754;2022-07-29T08:39:33;38.50;49.50
32698;DHT22;19087;51.062;3.754;2022-07-29T08:42:02;38.30;49.70
32698;DHT22;19087;51.062;3.754;2022-07-29T08:44:28;37.40;50.00
32698;DHT22;19087;51.062;3.754;2022-07-29T08:46:55;37.30;50.40
32698;DHT22;19087;51.062;3.754;2022-07-29T08:49:22;37.40;50.80
32698;DHT22;19087;51.062;3.754;2022-07-29T08:51:50;38.00;50.50
32698;DHT22;19087;51.062;3.754;2022-07-29T08:54:18;37.90;50.60
32698;DHT22;19087;51.062;3.754;2022-07-29T08:56:47;37.40;50.70
32698;DHT22;19087;51.062;3.754;2022-07-29T08:59:14;36.60;51.00
32698;DHT22;19087;51.062;3.754;2022-07-29T09:01:40;36.60;51.80
32698;DHT22;19087;51.062;3.754;2022-07-29T09:04:11;36.80;51.40
32698;DHT22;19087;51.062;3.754;2022-07-29T09:06:43;36.00;52.50
32698;DHT22;19087;51.062;3.754;2022-07-29T09:09:09;35.10;53.30
32698;DHT22;19087;51.062;3.754;2022-07-29T09:11:35;34.20;54.20
32698;DHT22;19087;51.062;3.754;2022-07-29T09:14:01;33.20;55.30
32698;DHT22;19087;51.062;3.754;2022-07-29T09:16:49;32.60;56.20
32698;DHT22;19087;51.062;3.754;2022-07-29T09:19:28;31.60;57.50
32698;DHT22;19087;51.062;3.754;2022-07-29T09:21:56;30.60;59.20
32698;DHT22;19087;51.062;3.754;2022-07-29T09:24:37;30.00;60.40
32698;DHT22;19087;51.062;3.754;2022-07-29T09:27:11;29.10;62.60
32698;DHT22;19087;51.062;3.754;2022-07-29T09:29:43;28.80;63.30
32698;DHT22;19087;51.062;3.754;2022-07-29T09:32:09;28.50;64.30
32698;DHT22;19087;51.062;3.754;2022-07-29T09:34:37;28.10;64.70
32698;DHT22;19087;51.062;3.754;2022-07-29T09:37:04;27.90;64.50
32698;DHT22;19087;51.062;3.754;2022-07-29T09:39:36;27.50;65.60
32698;DHT22;19087;51.062;3.754;2022-07-29T09:42:05;27.20;67.10
32698;DHT22;19087;51.062;3.754;2022-07-29T09:44:48;27.10;68.00
32698;DHT22;19087;51.062;3.754;2022-07-29T09:47:14;26.90;67.60
32698;DHT22;19087;51.062;3.754;2022-07-29T09:49:56;26.80;66.60
32698;DHT22;19087;51.062;3.754;2022-07-29T09:52:29;26.70;65.70
32698;DHT22;19087;51.062;3.754;2022-07-29T09:55:09;26.50;66.80
32698;DHT22;19087;51.062;3.754;2022-07-29T09:57:38;26.50;67.50
32698;DHT22;19087;51.062;3.754;2022-07-29T10:00:09;26.50;67.10
32698;DHT22;19087;51.062;3.754;2022-07-29T10:02:37;26.40;68.30
32698;DHT22;19087;51.062;3.754;2022-07-29T10:05:06;26.50;65.60
32698;DHT22;19087;51.062;3.754;2022-07-29T10:07:50;26.50;65.90
32698;DHT22;19087;51.062;3.754;2022-07-29T10:10:24;26.30;66.70
32698;DHT22;19087;51.062;3.754;2022-07-29T10:12:58;26.50;66.50
32698;DHT22;19087;51.062;3.754;2022-07-29T10:15:25;26.60;65.50
32698;DHT22;19087;51.062;3.754;2022-07-29T10:17:53;26.50;65.20
32698;DHT22;19087;51.062;3.754;2022-07-29T10:20:20;26.50;64.40
32698;DHT22;19087;51.062;3.754;2022-07-29T10:22:48;26.50;64.90
32698;DHT22;19087;51.062;3.754;2022-07-29T10:25:15;26.60;63.40
32698;DHT22;19087;51.062;3.754;2022-07-29T10:27:42;26.40;63.90
32698;DHT22;19087;51.062;3.754;2022-07-29T10:30:09;26.40;64.40
32698;DHT22;19087;51.062;3.754;2022-07-29T10:41:07;26.60;63.20
32698;DHT22;19087;51.062;3.754;2022-07-29T10:44:38;26.60;61.40
32698;DHT22;19087;51.062;3.754;2022-07-29T10:46:40;26.60;60.70
32698;DHT22;19087;51.062;3.754;2022-07-29T10:51:51;26.70;62.40
32698;DHT22;19087;51.062;3.754;2022-07-29T10:54:18;26.90;62.80
32698;DHT22;19087;51.062;3.754;2022-07-29T10:56:44;27.00;59.70
32698;DHT22;19087;51.062;3.754;2022-07-29T11:01:52;26.60;61.10
32698;DHT22;19087;51.062;3.754;2022-07-29T11:07:09;26.70;61.50
32698;DHT22;19087;51.062;3.754;2022-07-29T11:09:38;26.90;61.10
32698;DHT22;19087;51.062;3.754;2022-07-29T11:12:50;27.00;60.90
32698;DHT22;19087;51.062;3.754;2022-07-29T11:14:58;26.80;60.40
32698;DHT22;19087;51.062;3.754;2022-07-29T11:17:24;26.90;60.60
32698;DHT22;19087;51.062;3.754;2022-07-29T11:19:50;27.20;60.70
32698;DHT22;19087;51.062;3.754;2022-07-29T11:22:33;27.40;60.20
32698;DHT22;19087;51.062;3.754;2022-07-29T11:25:16;27.40;60.80
32698;DHT22;19087;51.062;3.754;2022-07-29T11:27:44;27.10;61.50
32698;DHT22;19087;51.062;3.754;2022-07-29T11:30:10;27.40;60.80
32698;DHT22;19087;51.062;3.754;2022-07-29T11:32:46;27.40;60.90
32698;DHT22;19087;51.062;3.754;2022-07-29T11:35:19;27.50;61.00
32698;DHT22;19087;51.062;3.754;2022-07-29T11:38:24;27.70;60.10
32698;DHT22;19087;51.062;3.754;2022-07-29T11:46:12;27.70;59.40
32698;DHT22;19087;51.062;3.754;2022-07-29T11:48:42;27.90;59.70
32698;DHT22;19087;51.062;3.754;2022-07-29T11:51:11;27.90;59.00
32698;DHT22;19087;51.062;3.754;2022-07-29T11:53:38;28.00;59.60
32698;DHT22;19087;51.062;3.754;2022-07-29T11:56:08;27.70;59.80
32698;DHT22;19087;51.062;3.754;2022-07-29T11:58:34;27.60;59.70
32698;DHT22;19087;51.062;3.754;2022-07-29T12:01:01;27.60;59.70
32698;DHT22;19087;51.062;3.754;2022-07-29T12:03:29;27.40;60.50
32698;DHT22;19087;51.062;3.754;2022-07-29T12:05:55;27.50;60.70
32698;DHT22;19087;51.062;3.754;2022-07-29T12:08:22;27.70;60.60
32698;DHT22;19087;51.062;3.754;2022-07-29T12:10:49;28.20;60.00
32698;DHT22;19087;51.062;3.754;2022-07-29T12:13:18;28.50;59.50
32698;DHT22;19087;51.062;3.754;2022-07-29T12:15:52;28.80;59.40
32698;DHT22;19087;51.062;3.754;2022-07-29T12:18:20;28.90;58.60
32698;DHT22;19087;51.062;3.754;2022-07-29T12:20:47;28.90;58.30
32698;DHT22;19087;51.062;3.754;2022-07-29T12:23:14;29.00;57.80
32698;DHT22;19087;51.062;3.754;2022-07-29T12:25:50;29.10;57.90
32698;DHT22;19087;51.062;3.754;2022-07-29T12:28:16;28.90;58.10
32698;DHT22;19087;51.062;3.754;2022-07-29T12:30:59;28.90;58.60
32698;DHT22;19087;51.062;3.754;2022-07-29T12:33:28;29.00;58.50
32698;DHT22;19087;51.062;3.754;2022-07-29T12:35:59;29.00;57.80
32698;DHT22;19087;51.062;3.754;2022-07-29T12:38:26;29.10;57.50
32698;DHT22;19087;51.062;3.754;2022-07-29T12:40:53;29.00;58.30
32698;DHT22;19087;51.062;3.754;2022-07-29T12:43:22;28.90;58.00
32698;DHT22;19087;51.062;3.754;2022-07-29T12:45:54;29.20;57.50
32698;DHT22;19087;51.062;3.754;2022-07-29T12:48:37;29.30;56.70
32698;DHT22;19087;51.062;3.754;2022-07-29T12:51:04;29.40;56.00
32698;DHT22;19087;51.062;3.754;2022-07-29T12:53:31;29.50;56.60
32698;DHT22;19087;51.062;3.754;2022-07-29T12:55:59;29.60;57.20
32698;DHT22;19087;51.062;3.754;2022-07-29T12:58:39;29.80;57.80
32698;DHT22;19087;51.062;3.754;2022-07-29T13:01:11;29.70;57.90
32698;DHT22;19087;51.062;3.754;2022-07-29T13:03:58;29.40;58.70
32698;DHT22;19087;51.062;3.754;2022-07-29T13:06:41;29.10;58.60
32698;DHT22;19087;51.062;3.754;2022-07-29T13:09:10;29.00;58.80
32698;DHT22;19087;51.062;3.754;2022-07-29T13:11:48;28.70;59.50
32698;DHT22;19087;51.062;3.754;2022-07-29T13:14:37;28.70;59.50
32698;DHT22;19087;51.062;3.754;2022-07-29T13:19:39;28.50;59.30
32698;DHT22;19087;51.062;3.754;2022-07-29T13:22:08;28.60;59.80
32698;DHT22;19087;51.062;3.754;2022-07-29T13:24:49;28.70;60.00
32698;DHT22;19087;51.062;3.754;2022-07-29T13:27:22;28.70;60.80
32698;DHT22;19087;51.062;3.754;2022-07-29T13:29:49;28.50;60.80
32698;DHT22;19087;51.062;3.754;2022-07-29T13:32:16;28.30;60.80
32698;DHT22;19087;51.062;3.754;2022-07-29T13:34:42;28.10;61.30
32698;DHT22;19087;51.062;3.754;2022-07-29T13:37:08;28.10;61.70
32698;DHT22;19087;51.062;3.754;2022-07-29T13:39:34;28.10;61.40
32698;DHT22;19087;51.062;3.754;2022-07-29T13:42:07;28.20;60.70
32698;DHT22;19087;51.062;3.754;2022-07-29T13:44:34;28.20;61.10
32698;DHT22;19087;51.062;3.754;2022-07-29T13:47:00;28.40;61.20
32698;DHT22;19087;51.062;3.754;2022-07-29T13:49:26;28.50;61.60
32698;DHT22;19087;51.062;3.754;2022-07-29T13:51:53;28.50;60.90
32698;DHT22;19087;51.062;3.754;2022-07-29T13:54:19;28.50;60.00
32698;DHT22;19087;51.062;3.754;2022-07-29T13:56:45;28.60;60.80
32698;DHT22;19087;51.062;3.754;2022-07-29T13:59:11;28.60;60.90
32698;DHT22;19087;51.062;3.754;2022-07-29T14:01:37;28.40;61.20
32698;DHT22;19087;51.062;3.754;2022-07-29T14:04:03;28.30;60.80
32698;DHT22;19087;51.062;3.754;2022-07-29T14:06:28;28.30;61.00
32698;DHT22;19087;51.062;3.754;2022-07-29T14:08:55;28.10;60.70
32698;DHT22;19087;51.062;3.754;2022-07-29T14:11:21;28.00;60.90
32698;DHT22;19087;51.062;3.754;2022-07-29T14:13:46;28.10;60.80
32698;DHT22;19087;51.062;3.754;2022-07-29T14:16:12;28.20;60.40
32698;DHT22;19087;51.062;3.754;2022-07-29T14:18:38;28.20;61.20
32698;DHT22;19087;51.062;3.754;2022-07-29T14:21:04;28.30;60.20
32698;DHT22;19087;51.062;3.754;2022-07-29T14:23:30;28.20;60.10
32698;DHT22;19087;51.062;3.754;2022-07-29T14:25:57;28.30;60.60
32698;DHT22;19087;51.062;3.754;2022-07-29T14:28:23;28.30;60.40
32698;DHT22;19087;51.062;3.754;2022-07-29T14:30:50;28.30;60.10
32698;DHT22;19087;51.062;3.754;2022-07-29T14:33:18;28.30;60.10
32698;DHT22;19087;51.062;3.754;2022-07-29T14:35:47;28.20;60.30
32698;DHT22;19087;51.062;3.754;2022-07-29T14:38:16;28.30;60.00
32698;DHT22;19087;51.062;3.754;2022-07-29T14:40:42;28.30;60.50
32698;DHT22;19087;51.062;3.754;2022-07-29T14:43:07;28.30;60.20
32698;DHT22;19087;51.062;3.754;2022-07-29T14:45:33;28.20;60.70
32698;DHT22;19087;51.062;3.754;2022-07-29T14:47:59;28.30;60.30
32698;DHT22;19087;51.062;3.754;2022-07-29T14:50:25;28.40;61.20
32698;DHT22;19087;51.062;3.754;2022-07-29T14:52:51;28.50;60.90
32698;DHT22;19087;51.062;3.754;2022-07-29T14:55:17;28.40;60.70
32698;DHT22;19087;51.062;3.754;2022-07-29T14:57:43;28.50;60.30
32698;DHT22;19087;51.062;3.754;2022-07-29T15:00:09;28.50;59.90
32698;DHT22;19087;51.062;3.754;2022-07-29T15:02:36;28.50;60.00
32698;DHT22;19087;51.062;3.754;2022-07-29T15:05:01;28.60;60.20
32698;DHT22;19087;51.062;3.754;2022-07-29T15:07:28;28.60;59.60
32698;DHT22;19087;51.062;3.754;2022-07-29T15:09:54;28.30;60.40
32698;DHT22;19087;51.062;3.754;2022-07-29T15:12:21;28.50;60.30
32698;DHT22;19087;51.062;3.754;2022-07-29T15:14:46;28.60;59.80
32698;DHT22;19087;51.062;3.754;2022-07-29T15:17:12;28.80;59.70
32698;DHT22;19087;51.062;3.754;2022-07-29T15:19:37;28.70;59.60
32698;DHT22;19087;51.062;3.754;2022-07-29T15:22:04;28.60;59.90
32698;DHT22;19087;51.062;3.754;2022-07-29T15:24:30;28.70;60.00
32698;DHT22;19087;51.062;3.754;2022-07-29T15:26:56;28.70;60.00
32698;DHT22;19087;51.062;3.754;2022-07-29T15:29:22;28.60;60.80
32698;DHT22;19087;51.062;3.754;2022-07-29T15:31:47;28.70;61.00
32698;DHT22;19087;51.062;3.754;2022-07-29T15:34:13;28.60;61.00
32698;DHT22;19087;51.062;3.754;2022-07-29T15:36:39;28.40;61.20
32698;DHT22;19087;51.062;3.754;2022-07-29T15:39:05;28.20;61.70
32698;DHT22;19087;51.062;3.754;2022-07-29T15:41:31;27.90;62.60
32698;DHT22;19087;51.062;3.754;2022-07-29T15:43:56;27.60;63.60
32698;DHT22;19087;51.062;3.754;2022-07-29T15:46:22;27.60;64.40
32698;DHT22;19087;51.062;3.754;2022-07-29T15:49:06;27.60;63.60
32698;DHT22;19087;51.062;3.754;2022-07-29T15:51:32;27.50;63.70
32698;DHT22;19087;51.062;3.754;2022-07-29T15:54:00;27.40;63.70
32698;DHT22;19087;51.062;3.754;2022-07-29T15:56:26;27.40;63.70
32698;DHT22;19087;51.062;3.754;2022-07-29T15:58:52;27.30;64.30
32698;DHT22;19087;51.062;3.754;2022-07-29T16:01:18;27.20;64.10
32698;DHT22;19087;51.062;3.754;2022-07-29T16:03:45;27.10;64.10
32698;DHT22;19087;51.062;3.754;2022-07-29T16:06:11;27.00;64.20
32698;DHT22;19087;51.062;3.754;2022-07-29T16:08:38;26.90;64.60
32698;DHT22;19087;51.062;3.754;2022-07-29T16:11:05;26.80;64.90
32698;DHT22;19087;51.062;3.754;2022-07-29T16:13:31;26.70;64.80